createdAt,value
2017-05-26T16:24:55.271Z,34.90
2017-05-26T16:27:22.813Z,34.80
2017-05-26T16:29:51.131Z,37.50
2017-05-26T16:32:19.453Z,35.90
2017-05-26T16:34:47.000Z,35.90
2017-05-26T16:37:15.285Z,36.30
2017-05-26T16:39:43.599Z,37.00
2017-05-26T16:42:11.900Z,37.10
2017-05-26T16:44:40.233Z,36.70
2017-05-26T16:47:08.560Z,36.40
2017-05-26T16:49:36.912Z,38.00
2017-05-26T16:52:05.206Z,38.20
2017-05-26T16:54:33.535Z,38.70
2017-05-26T16:57:01.123Z,38.70
2017-05-26T16:59:29.426Z,38.80
2017-05-26T17:01:57.753Z,38.70
2017-05-26T17:04:26.084Z,39.50
2017-05-26T17:06:53.650Z,39.40
2017-05-26T17:09:21.966Z,39.50
2017-05-26T17:11:50.333Z,39.60
2017-05-26T17:14:18.679Z,39.20
2017-05-26T17:16:47.010Z,38.90
2017-05-26T17:19:15.349Z,38.60
2017-05-26T17:21:43.674Z,39.80
2017-05-26T17:24:11.974Z,40.30
2017-05-26T17:26:40.305Z,40.20
2017-05-26T17:29:08.633Z,38.90
2017-05-26T17:31:36.991Z,38.90
2017-05-26T17:34:05.290Z,39.30
2017-05-26T17:36:33.666Z,39.20
2017-05-26T17:39:02.004Z,39.90
2017-05-26T17:41:30.328Z,39.60
2017-05-26T17:43:58.664Z,39.40
2017-05-26T17:46:27.082Z,39.60
2017-05-26T17:48:55.517Z,39.70
2017-05-26T17:51:23.934Z,40.40
2017-05-26T17:53:52.339Z,40.00
2017-05-26T17:56:23.688Z,42.30
2017-05-26T17:58:52.215Z,41.90
2017-05-26T18:01:20.581Z,44.30
2017-05-26T18:03:48.141Z,44.30
2017-05-26T18:06:15.748Z,42.20
2017-05-26T18:08:43.418Z,43.50
2017-05-26T18:11:12.005Z,41.50
2017-05-26T18:13:40.399Z,42.70
2017-05-26T18:16:08.000Z,42.70
2017-05-26T18:18:36.306Z,42.30
2017-05-26T18:21:04.643Z,41.90
2017-05-26T18:23:32.195Z,41.90
2017-05-26T18:25:59.760Z,42.20
2017-05-26T18:28:27.328Z,41.40
2017-05-26T18:30:55.617Z,43.30
2017-05-26T18:33:23.260Z,43.30
2017-05-26T18:35:50.859Z,44.10
2017-05-26T18:38:18.495Z,42.80
2017-05-26T18:40:46.826Z,41.90
2017-05-26T18:43:16.103Z,43.00
2017-05-26T18:45:43.694Z,42.90
2017-05-26T18:48:11.281Z,43.30
2017-05-26T18:50:39.623Z,43.80
2017-05-26T18:53:07.974Z,43.90
2017-05-26T18:55:36.360Z,43.80
2017-05-26T18:58:04.697Z,43.90
2017-05-26T19:00:33.026Z,43.60
2017-05-26T19:03:00.564Z,43.60
2017-05-26T19:05:28.874Z,44.30
2017-05-26T19:07:56.434Z,44.20
2017-05-26T19:10:24.748Z,44.80
2017-05-26T19:12:53.047Z,44.70
2017-05-26T19:15:21.378Z,45.40
2017-05-26T19:17:49.714Z,45.00
2017-05-26T19:20:18.021Z,44.90
2017-05-26T19:22:45.655Z,44.90
2017-05-26T19:25:13.218Z,45.10
2017-05-26T19:27:40.828Z,45.70
2017-05-26T19:30:09.157Z,45.40
2017-05-26T19:32:36.737Z,45.40
2017-05-26T19:35:05.071Z,45.40
2017-05-26T19:37:33.369Z,45.50
2017-05-26T19:40:01.723Z,46.10
2017-05-26T19:42:30.062Z,44.60
2017-05-26T19:44:58.360Z,45.10
2017-05-26T19:47:26.863Z,44.70
2017-05-26T19:49:55.161Z,45.70
2017-05-26T19:52:22.678Z,45.70
2017-05-26T19:54:50.302Z,46.10
2017-05-26T19:57:18.611Z,45.70
2017-05-26T19:59:47.061Z,45.10
2017-05-26T20:02:15.476Z,46.40
2017-05-26T20:04:43.791Z,45.80
2017-05-26T20:07:11.313Z,45.70
2017-05-26T20:09:39.673Z,46.40
2017-05-26T20:12:07.951Z,46.90
2017-05-26T20:14:35.521Z,46.90
2017-05-26T20:17:03.056Z,46.00
2017-05-26T20:19:30.597Z,46.30
2017-05-26T20:21:59.010Z,45.80
2017-05-26T20:24:26.538Z,45.70
2017-05-26T20:26:54.146Z,46.20
2017-05-26T20:29:22.476Z,46.70
2017-05-26T20:31:50.808Z,46.50
2017-05-26T20:34:19.172Z,47.20
2017-05-26T20:36:47.468Z,47.00
2017-05-26T20:39:14.980Z,47.00
2017-05-26T20:41:43.345Z,46.60
2017-05-26T20:44:11.638Z,46.90
2017-05-26T20:46:43.569Z,46.80
2017-05-26T20:49:11.824Z,47.00
2017-05-26T20:51:40.176Z,47.00
2017-05-26T20:54:07.702Z,46.70
2017-05-26T20:56:36.024Z,47.30
2017-05-26T20:59:04.315Z,47.50
2017-05-26T21:01:32.620Z,48.10
2017-05-26T21:04:00.952Z,47.50
2017-05-26T21:06:28.487Z,47.50
2017-05-26T21:08:56.817Z,48.10
2017-05-26T21:11:25.162Z,48.10
2017-05-26T21:13:52.781Z,48.00
2017-05-26T21:16:21.115Z,48.50
2017-05-26T21:18:48.686Z,48.50
2017-05-26T21:21:17.044Z,48.70
2017-05-26T21:23:45.333Z,48.70
2017-05-26T21:26:13.698Z,48.70
2017-05-26T21:28:42.076Z,49.40
2017-05-26T21:31:10.408Z,49.10
2017-05-26T21:33:38.693Z,48.90
2017-05-26T21:36:07.031Z,48.60
2017-05-26T21:38:35.310Z,49.70
2017-05-26T21:41:03.635Z,48.90
2017-05-26T21:43:31.918Z,49.00
2017-05-26T21:45:59.431Z,49.00
2017-05-26T21:48:27.760Z,49.20
2017-05-26T21:50:56.034Z,49.70
2017-05-26T21:53:24.301Z,49.60
2017-05-26T21:55:52.635Z,49.00
2017-05-26T21:58:20.947Z,49.80
2017-05-26T22:00:49.224Z,50.10
2017-05-26T22:03:17.543Z,50.00
2017-05-26T22:05:46.742Z,50.30
2017-05-26T22:08:15.020Z,50.30
2017-05-26T22:10:43.336Z,50.60
2017-05-26T22:13:11.627Z,50.90
2017-05-26T22:15:39.949Z,50.80
2017-05-26T22:18:08.218Z,51.50
2017-05-26T22:20:36.551Z,51.20
2017-05-26T22:23:04.848Z,51.60
2017-05-26T22:25:33.157Z,52.40
2017-05-26T22:28:01.464Z,51.80
2017-05-26T22:30:29.732Z,52.20
2017-05-26T22:32:58.057Z,52.70
2017-05-26T22:35:26.341Z,52.40
2017-05-26T22:37:56.635Z,52.00
2017-05-26T22:40:24.933Z,51.80
2017-05-26T22:42:53.262Z,52.50
2017-05-26T22:45:21.543Z,53.00
2017-05-26T22:47:49.807Z,51.90
2017-05-26T22:50:18.099Z,53.00
2017-05-26T22:52:46.380Z,52.30
2017-05-26T22:55:14.699Z,52.40
2017-05-26T22:57:42.977Z,53.10
2017-05-26T23:00:11.277Z,52.90
2017-05-26T23:02:39.548Z,53.80
2017-05-26T23:05:07.858Z,53.50
2017-05-26T23:07:36.125Z,54.20
2017-05-26T23:10:04.401Z,53.30
2017-05-26T23:12:32.710Z,53.40
2017-05-26T23:15:00.981Z,53.40
2017-05-26T23:17:29.310Z,53.40
2017-05-26T23:19:57.647Z,53.70
2017-05-26T23:22:25.913Z,54.10
2017-05-26T23:24:54.212Z,53.50
2017-05-26T23:27:22.534Z,54.10
2017-05-26T23:29:50.850Z,54.30
2017-05-26T23:32:19.120Z,54.60
2017-05-26T23:34:47.403Z,55.00
2017-05-26T23:37:15.667Z,54.80
2017-05-26T23:39:43.976Z,54.50
2017-05-26T23:42:12.237Z,54.80
2017-05-26T23:44:40.510Z,54.90
2017-05-26T23:47:08.836Z,55.20
2017-05-26T23:49:37.104Z,55.00
2017-05-26T23:52:05.369Z,55.20
2017-05-26T23:54:33.673Z,54.90
2017-05-26T23:57:01.948Z,55.00
2017-05-26T23:59:30.204Z,55.80
